sensor_id;sensor_type;location;lat;lon;timestamp;P1;durP1;ratioP1;P2;durP2;ratioP2
26634;SDS011;14490;54.208;37.686;2023-07-31T00:00:45;4.93;;;2.88;;
26634;SDS011;14490;54.208;37.686;2023-07-31T00:03:12;3.58;;;3.28;;
26634;SDS011;14490;54.208;37.686;2023-07-31T00:05:39;3.30;;;3.00;;
26634;SDS011;14490;54.208;37.686;2023-07-31T00:08:06;3.20;;;2.90;;
26634;SDS011;14490;54.208;37.686;2023-07-31T00:10:35;3.42;;;3.10;;
26634;SDS011;14490;54.208;37.686;2023-07-31T00:13:02;5.35;;;3.05;;
26634;SDS011;14490;54.208;37.686;2023-07-31T00:15:29;4.28;;;3.10;;
26634;SDS011;14490;54.208;37.686;2023-07-31T00:17:56;5.15;;;2.63;;
26634;SDS011;14490;54.208;37.686;2023-07-31T00:20:23;3.92;;;2.50;;
26634;SDS011;14490;54.208;37.686;2023-07-31T00:22:50;4.43;;;2.80;;
26634;SDS011;14490;54.208;37.686;2023-07-31T00:25:17;5.28;;;3.03;;
26634;SDS011;14490;54.208;37.686;2023-07-31T00:27:45;7.75;;;2.85;;
26634;SDS011;14490;54.208;37.686;2023-07-31T00:30:13;6.40;;;2.90;;
26634;SDS011;14490;54.208;37.686;2023-07-31T00:32:40;5.70;;;2.80;;
26634;SDS011;14490;54.208;37.686;2023-07-31T00:35:07;7.55;;;3.35;;
26634;SDS011;14490;54.208;37.686;2023-07-31T00:37:34;6.10;;;2.72;;
26634;SDS011;14490;54.208;37.686;2023-07-31T00:40:01;6.30;;;3.00;;
26634;SDS011;14490;54.208;37.686;2023-07-31T00:42:29;4.03;;;3.20;;
26634;SDS011;14490;54.208;37.686;2023-07-31T00:44:57;6.38;;;3.65;;
26634;SDS011;14490;54.208;37.686;2023-07-31T00:47:24;3.22;;;2.78;;
26634;SDS011;14490;54.208;37.686;2023-07-31T00:49:52;6.88;;;3.10;;
26634;SDS011;14490;54.208;37.686;2023-07-31T00:52:19;3.55;;;2.85;;
26634;SDS011;14490;54.208;37.686;2023-07-31T00:54:47;3.65;;;2.80;;
26634;SDS011;14490;54.208;37.686;2023-07-31T00:57:15;3.45;;;2.78;;
26634;SDS011;14490;54.208;37.686;2023-07-31T00:59:42;4.93;;;2.95;;
26634;SDS011;14490;54.208;37.686;2023-07-31T01:02:10;7.50;;;2.88;;
26634;SDS011;14490;54.208;37.686;2023-07-31T01:04:38;7.20;;;3.00;;
26634;SDS011;14490;54.208;37.686;2023-07-31T01:07:06;6.78;;;3.05;;
26634;SDS011;14490;54.208;37.686;2023-07-31T01:09:40;5.80;;;3.00;;
26634;SDS011;14490;54.208;37.686;2023-07-31T01:12:12;6.75;;;2.97;;
26634;SDS011;14490;54.208;37.686;2023-07-31T01:14:50;7.63;;;3.83;;
26634;SDS011;14490;54.208;37.686;2023-07-31T01:17:19;4.90;;;3.95;;
26634;SDS011;14490;54.208;37.686;2023-07-31T01:19:46;7.82;;;3.53;;
26634;SDS011;14490;54.208;37.686;2023-07-31T01:22:23;4.95;;;3.80;;
26634;SDS011;14490;54.208;37.686;2023-07-31T01:25:00;5.60;;;3.67;;
26634;SDS011;14490;54.208;37.686;2023-07-31T01:27:39;9.13;;;4.70;;
26634;SDS011;14490;54.208;37.686;2023-07-31T01:30:11;8.45;;;3.72;;
26634;SDS011;14490;54.208;37.686;2023-07-31T01:32:42;8.35;;;3.83;;
26634;SDS011;14490;54.208;37.686;2023-07-31T01:35:10;14.35;;;4.93;;
26634;SDS011;14490;54.208;37.686;2023-07-31T01:37:37;12.10;;;3.88;;
26634;SDS011;14490;54.208;37.686;2023-07-31T01:40:05;10.90;;;4.57;;
26634;SDS011;14490;54.208;37.686;2023-07-31T01:42:32;8.98;;;4.15;;
26634;SDS011;14490;54.208;37.686;2023-07-31T01:45:01;9.38;;;3.97;;
26634;SDS011;14490;54.208;37.686;2023-07-31T01:47:28;11.05;;;4.78;;
26634;SDS011;14490;54.208;37.686;2023-07-31T01:49:55;11.60;;;4.53;;
26634;SDS011;14490;54.208;37.686;2023-07-31T01:52:22;12.18;;;3.88;;
26634;SDS011;14490;54.208;37.686;2023-07-31T01:54:49;8.07;;;4.18;;
26634;SDS011;14490;54.208;37.686;2023-07-31T01:57:16;12.18;;;4.40;;
26634;SDS011;14490;54.208;37.686;2023-07-31T01:59:43;14.68;;;4.03;;
26634;SDS011;14490;54.208;37.686;2023-07-31T02:02:12;11.60;;;3.65;;
26634;SDS011;14490;54.208;37.686;2023-07-31T02:04:39;6.25;;;3.45;;
26634;SDS011;14490;54.208;37.686;2023-07-31T02:07:07;10.98;;;4.30;;
26634;SDS011;14490;54.208;37.686;2023-07-31T02:09:34;8.90;;;4.95;;
26634;SDS011;14490;54.208;37.686;2023-07-31T02:12:01;11.43;;;4.95;;
26634;SDS011;14490;54.208;37.686;2023-07-31T02:14:28;7.43;;;3.90;;
26634;SDS011;14490;54.208;37.686;2023-07-31T02:16:55;7.47;;;4.03;;
26634;SDS011;14490;54.208;37.686;2023-07-31T02:19:23;9.10;;;5.28;;
26634;SDS011;14490;54.208;37.686;2023-07-31T02:21:50;10.45;;;4.22;;
26634;SDS011;14490;54.208;37.686;2023-07-31T02:24:17;11.85;;;4.72;;
26634;SDS011;14490;54.208;37.686;2023-07-31T02:26:45;5.50;;;4.75;;
26634;SDS011;14490;54.208;37.686;2023-07-31T02:29:12;10.00;;;4.35;;
26634;SDS011;14490;54.208;37.686;2023-07-31T02:31:39;8.43;;;4.15;;
26634;SDS011;14490;54.208;37.686;2023-07-31T02:34:06;12.73;;;4.90;;
26634;SDS011;14490;54.208;37.686;2023-07-31T02:36:34;11.48;;;4.85;;
26634;SDS011;14490;54.208;37.686;2023-07-31T02:39:01;7.18;;;4.47;;
26634;SDS011;14490;54.208;37.686;2023-07-31T02:41:29;32.25;;;8.07;;
26634;SDS011;14490;54.208;37.686;2023-07-31T02:43:56;17.20;;;5.30;;
26634;SDS011;14490;54.208;37.686;2023-07-31T02:46:23;10.13;;;4.85;;
26634;SDS011;14490;54.208;37.686;2023-07-31T02:48:50;9.20;;;3.97;;
26634;SDS011;14490;54.208;37.686;2023-07-31T02:51:18;8.60;;;4.10;;
26634;SDS011;14490;54.208;37.686;2023-07-31T02:53:48;5.97;;;4.88;;
26634;SDS011;14490;54.208;37.686;2023-07-31T02:56:15;12.55;;;4.60;;
26634;SDS011;14490;54.208;37.686;2023-07-31T02:58:42;6.55;;;4.47;;
26634;SDS011;14490;54.208;37.686;2023-07-31T03:01:09;8.25;;;4.88;;
26634;SDS011;14490;54.208;37.686;2023-07-31T03:03:36;10.30;;;5.15;;
26634;SDS011;14490;54.208;37.686;2023-07-31T03:06:03;11.10;;;5.95;;
26634;SDS011;14490;54.208;37.686;2023-07-31T03:08:30;7.55;;;4.70;;
26634;SDS011;14490;54.208;37.686;2023-07-31T03:10:59;8.88;;;6.22;;
26634;SDS011;14490;54.208;37.686;2023-07-31T03:13:26;11.88;;;5.35;;
26634;SDS011;14490;54.208;37.686;2023-07-31T03:15:53;11.23;;;5.38;;
26634;SDS011;14490;54.208;37.686;2023-07-31T03:18:22;14.07;;;6.03;;
26634;SDS011;14490;54.208;37.686;2023-07-31T03:20:50;16.90;;;6.00;;
26634;SDS011;14490;54.208;37.686;2023-07-31T03:23:17;13.18;;;5.32;;
26634;SDS011;14490;54.208;37.686;2023-07-31T03:25:55;14.57;;;6.22;;
26634;SDS011;14490;54.208;37.686;2023-07-31T03:28:27;22.30;;;7.32;;
26634;SDS011;14490;54.208;37.686;2023-07-31T03:33:26;16.08;;;6.90;;
26634;SDS011;14490;54.208;37.686;2023-07-31T03:35:54;11.65;;;5.97;;
26634;SDS011;14490;54.208;37.686;2023-07-31T03:38:21;19.40;;;6.00;;
26634;SDS011;14490;54.208;37.686;2023-07-31T03:40:49;14.00;;;5.95;;
26634;SDS011;14490;54.208;37.686;2023-07-31T03:43:16;11.02;;;6.20;;
26634;SDS011;14490;54.208;37.686;2023-07-31T03:45:45;17.52;;;6.57;;
26634;SDS011;14490;54.208;37.686;2023-07-31T03:48:13;20.05;;;7.35;;
26634;SDS011;14490;54.208;37.686;2023-07-31T03:50:41;16.08;;;6.60;;
26634;SDS011;14490;54.208;37.686;2023-07-31T03:53:10;19.13;;;6.38;;
26634;SDS011;14490;54.208;37.686;2023-07-31T03:55:37;11.18;;;6.03;;
26634;SDS011;14490;54.208;37.686;2023-07-31T03:58:06;12.70;;;5.78;;
26634;SDS011;14490;54.208;37.686;2023-07-31T04:00:34;20.85;;;6.05;;
26634;SDS011;14490;54.208;37.686;2023-07-31T04:03:18;9.07;;;5.15;;
26634;SDS011;14490;54.208;37.686;2023-07-31T04:05:46;13.20;;;5.10;;
26634;SDS011;14490;54.208;37.686;2023-07-31T04:08:14;10.65;;;5.07;;
26634;SDS011;14490;54.208;37.686;2023-07-31T04:10:42;11.73;;;5.07;;
26634;SDS011;14490;54.208;37.686;2023-07-31T04:13:09;11.20;;;4.80;;
26634;SDS011;14490;54.208;37.686;2023-07-31T04:15:38;7.88;;;4.50;;
26634;SDS011;14490;54.208;37.686;2023-07-31T04:18:05;17.35;;;5.50;;
26634;SDS011;14490;54.208;37.686;2023-07-31T04:20:35;7.82;;;5.45;;
26634;SDS011;14490;54.208;37.686;2023-07-31T04:23:03;13.50;;;5.88;;
26634;SDS011;14490;54.208;37.686;2023-07-31T04:25:31;13.65;;;6.00;;
26634;SDS011;14490;54.208;37.686;2023-07-31T04:28:00;8.98;;;5.00;;
26634;SDS011;14490;54.208;37.686;2023-07-31T04:30:27;8.73;;;5.30;;
26634;SDS011;14490;54.208;37.686;2023-07-31T04:32:54;15.77;;;4.30;;
26634;SDS011;14490;54.208;37.686;2023-07-31T04:35:24;10.05;;;4.38;;
26634;SDS011;14490;54.208;37.686;2023-07-31T04:37:53;8.13;;;4.70;;
26634;SDS011;14490;54.208;37.686;2023-07-31T04:40:22;13.88;;;4.03;;
26634;SDS011;14490;54.208;37.686;2023-07-31T04:42:51;7.97;;;3.90;;
26634;SDS011;14490;54.208;37.686;2023-07-31T04:45:20;8.32;;;3.53;;
26634;SDS011;14490;54.208;37.686;2023-07-31T04:47:48;8.40;;;3.15;;
26634;SDS011;14490;54.208;37.686;2023-07-31T04:50:16;12.75;;;3.53;;
26634;SDS011;14490;54.208;37.686;2023-07-31T04:52:44;10.75;;;3.80;;
26634;SDS011;14490;54.208;37.686;2023-07-31T04:55:12;14.48;;;4.47;;
26634;SDS011;14490;54.208;37.686;2023-07-31T04:57:40;14.55;;;3.83;;
26634;SDS011;14490;54.208;37.686;2023-07-31T05:00:20;12.32;;;4.35;;
26634;SDS011;14490;54.208;37.686;2023-07-31T05:02:47;6.78;;;4.07;;
26634;SDS011;14490;54.208;37.686;2023-07-31T05:05:14;14.65;;;4.70;;
26634;SDS011;14490;54.208;37.686;2023-07-31T05:07:43;7.57;;;3.78;;
26634;SDS011;14490;54.208;37.686;2023-07-31T05:10:11;16.15;;;4.93;;
26634;SDS011;14490;54.208;37.686;2023-07-31T05:12:40;9.52;;;5.07;;
26634;SDS011;14490;54.208;37.686;2023-07-31T05:15:09;14.48;;;6.65;;
26634;SDS011;14490;54.208;37.686;2023-07-31T05:17:37;9.52;;;5.50;;
26634;SDS011;14490;54.208;37.686;2023-07-31T05:20:08;6.25;;;4.95;;
26634;SDS011;14490;54.208;37.686;2023-07-31T05:22:36;17.33;;;4.88;;
26634;SDS011;14490;54.208;37.686;2023-07-31T05:25:05;7.32;;;5.65;;
26634;SDS011;14490;54.208;37.686;2023-07-31T05:27:43;7.40;;;3.88;;
26634;SDS011;14490;54.208;37.686;2023-07-31T05:41:58;6.15;;;3.67;;
26634;SDS011;14490;54.208;37.686;2023-07-31T05:44:25;13.60;;;4.25;;
26634;SDS011;14490;54.208;37.686;2023-07-31T05:46:53;9.30;;;3.72;;
26634;SDS011;14490;54.208;37.686;2023-07-31T05:49:20;4.28;;;3.00;;
26634;SDS011;14490;54.208;37.686;2023-07-31T05:51:47;10.60;;;3.15;;
26634;SDS011;14490;54.208;37.686;2023-07-31T05:54:14;3.30;;;2.72;;
26634;SDS011;14490;54.208;37.686;2023-07-31T05:56:42;6.03;;;2.72;;
26634;SDS011;14490;54.208;37.686;2023-07-31T05:59:11;4.10;;;2.55;;
26634;SDS011;14490;54.208;37.686;2023-07-31T06:01:39;6.45;;;2.35;;
26634;SDS011;14490;54.208;37.686;2023-07-31T06:04:06;6.78;;;2.15;;
26634;SDS011;14490;54.208;37.686;2023-07-31T06:06:34;3.40;;;2.08;;
26634;SDS011;14490;54.208;37.686;2023-07-31T06:09:01;4.07;;;1.95;;
26634;SDS011;14490;54.208;37.686;2023-07-31T06:11:29;6.65;;;2.53;;
26634;SDS011;14490;54.208;37.686;2023-07-31T06:13:58;4.72;;;2.28;;
26634;SDS011;14490;54.208;37.686;2023-07-31T06:16:31;5.03;;;2.05;;
26634;SDS011;14490;54.208;37.686;2023-07-31T06:18:58;2.40;;;1.88;;
26634;SDS011;14490;54.208;37.686;2023-07-31T06:21:30;5.15;;;1.55;;
26634;SDS011;14490;54.208;37.686;2023-07-31T06:23:59;4.60;;;1.80;;
26634;SDS011;14490;54.208;37.686;2023-07-31T06:26:29;6.63;;;2.08;;
26634;SDS011;14490;54.208;37.686;2023-07-31T06:28:56;4.32;;;2.20;;
26634;SDS011;14490;54.208;37.686;2023-07-31T06:31:23;4.13;;;2.75;;
26634;SDS011;14490;54.208;37.686;2023-07-31T06:33:52;8.73;;;3.13;;
26634;SDS011;14490;54.208;37.686;2023-07-31T06:36:20;13.23;;;7.40;;
26634;SDS011;14490;54.208;37.686;2023-07-31T06:38:48;6.18;;;2.78;;
26634;SDS011;14490;54.208;37.686;2023-07-31T06:41:15;4.72;;;2.60;;
26634;SDS011;14490;54.208;37.686;2023-07-31T06:43:42;5.47;;;2.22;;
26634;SDS011;14490;54.208;37.686;2023-07-31T06:46:10;3.53;;;2.00;;
26634;SDS011;14490;54.208;37.686;2023-07-31T06:48:40;7.38;;;2.90;;
26634;SDS011;14490;54.208;37.686;2023-07-31T06:51:10;10.52;;;2.65;;
26634;SDS011;14490;54.208;37.686;2023-07-31T06:53:39;4.53;;;1.77;;
26634;SDS011;14490;54.208;37.686;2023-07-31T06:56:06;5.28;;;1.88;;
26634;SDS011;14490;54.208;37.686;2023-07-31T06:58:33;3.42;;;1.38;;
26634;SDS011;14490;54.208;37.686;2023-07-31T07:01:01;7.18;;;1.83;;
26634;SDS011;14490;54.208;37.686;2023-07-31T07:03:28;5.50;;;1.50;;
26634;SDS011;14490;54.208;37.686;2023-07-31T07:05:56;2.95;;;1.23;;
26634;SDS011;14490;54.208;37.686;2023-07-31T07:08:25;6.18;;;1.65;;
26634;SDS011;14490;54.208;37.686;2023-07-31T07:10:52;6.25;;;1.70;;
26634;SDS011;14490;54.208;37.686;2023-07-31T07:13:22;3.60;;;1.48;;
26634;SDS011;14490;54.208;37.686;2023-07-31T07:15:49;4.45;;;1.95;;
26634;SDS011;14490;54.208;37.686;2023-07-31T07:18:23;4.43;;;1.17;;
26634;SDS011;14490;54.208;37.686;2023-07-31T07:20:51;6.10;;;1.45;;
26634;SDS011;14490;54.208;37.686;2023-07-31T07:25:50;7.85;;;3.10;;
26634;SDS011;14490;54.208;37.686;2023-07-31T07:28:18;3.55;;;2.00;;
26634;SDS011;14490;54.208;37.686;2023-07-31T07:30:50;10.32;;;2.38;;
26634;SDS011;14490;54.208;37.686;2023-07-31T07:33:19;3.35;;;1.00;;
26634;SDS011;14490;54.208;37.686;2023-07-31T07:35:46;2.15;;;1.05;;
26634;SDS011;14490;54.208;37.686;2023-07-31T07:38:14;3.33;;;1.27;;
26634;SDS011;14490;54.208;37.686;2023-07-31T07:40:41;3.95;;;1.30;;
26634;SDS011;14490;54.208;37.686;2023-07-31T07:43:16;4.00;;;1.08;;
26634;SDS011;14490;54.208;37.686;2023-07-31T07:45:44;4.43;;;1.00;;
26634;SDS011;14490;54.208;37.686;2023-07-31T07:48:11;1.70;;;1.10;;
26634;SDS011;14490;54.208;37.686;2023-07-31T07:50:38;3.80;;;1.05;;
26634;SDS011;14490;54.208;37.686;2023-07-31T07:53:08;3.83;;;1.20;;
26634;SDS011;14490;54.208;37.686;2023-07-31T07:55:37;1.83;;;1.30;;
26634;SDS011;14490;54.208;37.686;2023-07-31T07:58:07;1.63;;;1.33;;
26634;SDS011;14490;54.208;37.686;2023-07-31T08:00:36;2.03;;;1.52;;
26634;SDS011;14490;54.208;37.686;2023-07-31T08:03:04;2.47;;;1.30;;
26634;SDS011;14490;54.208;37.686;2023-07-31T08:05:31;2.45;;;0.95;;
26634;SDS011;14490;54.208;37.686;2023-07-31T08:08:00;4.03;;;1.80;;
26634;SDS011;14490;54.208;37.686;2023-07-31T08:10:32;7.93;;;2.72;;
26634;SDS011;14490;54.208;37.686;2023-07-31T08:13:00;5.53;;;1.48;;
26634;SDS011;14490;54.208;37.686;2023-07-31T08:15:30;6.68;;;1.15;;
26634;SDS011;14490;54.208;37.686;2023-07-31T08:17:59;1.83;;;1.03;;
26634;SDS011;14490;54.208;37.686;2023-07-31T08:20:26;2.05;;;1.00;;
26634;SDS011;14490;54.208;37.686;2023-07-31T08:22:53;2.28;;;1.55;;
26634;SDS011;14490;54.208;37.686;2023-07-31T08:25:21;1.10;;;1.00;;
26634;SDS011;14490;54.208;37.686;2023-07-31T08:27:48;2.25;;;1.13;;
26634;SDS011;14490;54.208;37.686;2023-07-31T08:30:17;2.85;;;1.00;;
26634;SDS011;14490;54.208;37.686;2023-07-31T08:32:46;1.50;;;0.82;;
26634;SDS011;14490;54.208;37.686;2023-07-31T08:35:14;1.90;;;1.25;;
26634;SDS011;14490;54.208;37.686;2023-07-31T08:37:42;1.98;;;1.00;;
26634;SDS011;14490;54.208;37.686;2023-07-31T08:40:13;3.13;;;1.00;;
26634;SDS011;14490;54.208;37.686;2023-07-31T08:42:47;2.30;;;1.10;;
26634;SDS011;14490;54.208;37.686;2023-07-31T08:45:16;1.35;;;1.05;;
26634;SDS011;14490;54.208;37.686;2023-07-31T08:47:45;1.50;;;1.27;;
26634;SDS011;14490;54.208;37.686;2023-07-31T08:50:17;1.67;;;1.00;;
26634;SDS011;14490;54.208;37.686;2023-07-31T08:52:47;8.70;;;1.40;;
26634;SDS011;14490;54.208;37.686;2023-07-31T08:55:16;4.97;;;1.27;;
26634;SDS011;14490;54.208;37.686;2023-07-31T08:57:48;2.72;;;1.20;;
26634;SDS011;14490;54.208;37.686;2023-07-31T09:00:19;7.03;;;2.70;;
26634;SDS011;14490;54.208;37.686;2023-07-31T09:02:51;5.05;;;1.10;;
26634;SDS011;14490;54.208;37.686;2023-07-31T09:05:32;3.85;;;1.27;;
26634;SDS011;14490;54.208;37.686;2023-07-31T09:07:59;6.78;;;1.95;;
26634;SDS011;14490;54.208;37.686;2023-07-31T09:10:34;1.25;;;1.00;;
26634;SDS011;14490;54.208;37.686;2023-07-31T09:13:01;2.97;;;1.02;;
26634;SDS011;14490;54.208;37.686;2023-07-31T09:15:30;3.65;;;1.55;;
26634;SDS011;14490;54.208;37.686;2023-07-31T09:18:01;1.42;;;1.20;;
26634;SDS011;14490;54.208;37.686;2023-07-31T09:20:29;1.83;;;0.95;;
26634;SDS011;14490;54.208;37.686;2023-07-31T09:23:05;1.73;;;1.35;;
26634;SDS011;14490;54.208;37.686;2023-07-31T09:25:34;4.32;;;1.15;;
26634;SDS011;14490;54.208;37.686;2023-07-31T09:28:03;2.65;;;1.15;;
26634;SDS011;14490;54.208;37.686;2023-07-31T09:30:44;4.47;;;1.33;;
26634;SDS011;14490;54.208;37.686;2023-07-31T09:33:14;2.28;;;1.10;;
26634;SDS011;14490;54.208;37.686;2023-07-31T09:35:41;3.75;;;1.50;;
26634;SDS011;14490;54.208;37.686;2023-07-31T09:40:57;1.38;;;1.00;;
26634;SDS011;14490;54.208;37.686;2023-07-31T09:43:26;2.40;;;1.05;;
26634;SDS011;14490;54.208;37.686;2023-07-31T09:45:54;6.03;;;1.50;;
26634;SDS011;14490;54.208;37.686;2023-07-31T09:48:23;8.18;;;1.77;;
26634;SDS011;14490;54.208;37.686;2023-07-31T09:50:53;1.88;;;1.50;;
26634;SDS011;14490;54.208;37.686;2023-07-31T09:53:32;2.45;;;1.08;;
26634;SDS011;14490;54.208;37.686;2023-07-31T09:55:59;5.03;;;1.77;;
26634;SDS011;14490;54.208;37.686;2023-07-31T09:58:28;3.42;;;1.02;;
26634;SDS011;14490;54.208;37.686;2023-07-31T10:00:57;2.00;;;1.40;;
26634;SDS011;14490;54.208;37.686;2023-07-31T10:03:25;5.43;;;1.23;;
26634;SDS011;14490;54.208;37.686;2023-07-31T10:05:53;2.20;;;1.98;;
26634;SDS011;14490;54.208;37.686;2023-07-31T10:08:26;1.40;;;1.23;;
26634;SDS011;14490;54.208;37.686;2023-07-31T10:10:58;2.10;;;0.93;;
26634;SDS011;14490;54.208;37.686;2023-07-31T10:13:27;5.57;;;1.40;;
26634;SDS011;14490;54.208;37.686;2023-07-31T10:15:58;4.38;;;1.75;;
26634;SDS011;14490;54.208;37.686;2023-07-31T10:18:26;1.40;;;1.27;;
26634;SDS011;14490;54.208;37.686;2023-07-31T10:20:54;1.60;;;0.95;;
26634;SDS011;14490;54.208;37.686;2023-07-31T10:23:22;4.55;;;1.20;;
26634;SDS011;14490;54.208;37.686;2023-07-31T10:25:53;2.92;;;1.10;;
26634;SDS011;14490;54.208;37.686;2023-07-31T10:28:20;1.60;;;1.20;;
26634;SDS011;14490;54.208;37.686;2023-07-31T10:30:48;2.78;;;1.17;;
26634;SDS011;14490;54.208;37.686;2023-07-31T10:33:17;4.85;;;1.10;;
26634;SDS011;14490;54.208;37.686;2023-07-31T10:35:48;4.03;;;1.15;;
26634;SDS011;14490;54.208;37.686;2023-07-31T10:38:18;1.98;;;1.30;;
26634;SDS011;14490;54.208;37.686;2023-07-31T10:40:46;3.97;;;1.42;;
26634;SDS011;14490;54.208;37.686;2023-07-31T10:43:25;1.98;;;1.40;;
26634;SDS011;14490;54.208;37.686;2023-07-31T10:45:52;4.22;;;1.20;;
26634;SDS011;14490;54.208;37.686;2023-07-31T10:48:20;5.38;;;1.40;;
26634;SDS011;14490;54.208;37.686;2023-07-31T10:50:51;2.47;;;1.08;;
26634;SDS011;14490;54.208;37.686;2023-07-31T10:53:22;1.52;;;1.42;;
26634;SDS011;14490;54.208;37.686;2023-07-31T10:55:51;4.25;;;2.70;;
26634;SDS011;14490;54.208;37.686;2023-07-31T10:58:20;7.53;;;4.13;;
26634;SDS011;14490;54.208;37.686;2023-07-31T11:00:49;2.78;;;1.40;;
26634;SDS011;14490;54.208;37.686;2023-07-31T11:03:24;2.40;;;2.08;;
26634;SDS011;14490;54.208;37.686;2023-07-31T11:08:28;9.32;;;2.40;;
26634;SDS011;14490;54.208;37.686;2023-07-31T11:11:09;2.58;;;1.08;;
26634;SDS011;14490;54.208;37.686;2023-07-31T11:13:42;4.22;;;1.55;;
26634;SDS011;14490;54.208;37.686;2023-07-31T11:16:16;1.50;;;1.20;;
26634;SDS011;14490;54.208;37.686;2023-07-31T11:18:47;1.45;;;1.15;;
26634;SDS011;14490;54.208;37.686;2023-07-31T11:21:17;1.30;;;1.20;;
26634;SDS011;14490;54.208;37.686;2023-07-31T11:23:47;2.92;;;1.50;;
26634;SDS011;14490;54.208;37.686;2023-07-31T11:26:15;2.00;;;1.50;;
26634;SDS011;14490;54.208;37.686;2023-07-31T11:28:46;4.18;;;1.52;;
26634;SDS011;14490;54.208;37.686;2023-07-31T11:31:15;1.75;;;1.50;;
26634;SDS011;14490;54.208;37.686;2023-07-31T11:33:43;5.15;;;1.85;;
26634;SDS011;14490;54.208;37.686;2023-07-31T11:36:14;1.63;;;1.42;;
26634;SDS011;14490;54.208;37.686;2023-07-31T11:38:42;1.73;;;1.40;;
26634;SDS011;14490;54.208;37.686;2023-07-31T11:41:09;6.20;;;1.77;;
26634;SDS011;14490;54.208;37.686;2023-07-31T11:43:37;5.00;;;1.95;;
26634;SDS011;14490;54.208;37.686;2023-07-31T11:46:04;1.77;;;1.65;;
26634;SDS011;14490;54.208;37.686;2023-07-31T11:48:34;4.68;;;1.55;;
26634;SDS011;14490;54.208;37.686;2023-07-31T11:51:03;2.88;;;1.40;;
26634;SDS011;14490;54.208;37.686;2023-07-31T11:53:40;4.18;;;1.83;;
26634;SDS011;14490;54.208;37.686;2023-07-31T11:56:11;1.98;;;1.27;;
26634;SDS011;14490;54.208;37.686;2023-07-31T12:01:38;3.92;;;1.15;;
26634;SDS011;14490;54.208;37.686;2023-07-31T12:04:07;4.70;;;1.17;;
26634;SDS011;14490;54.208;37.686;2023-07-31T12:06:34;3.25;;;1.23;;
26634;SDS011;14490;54.208;37.686;2023-07-31T12:09:03;2.47;;;1.50;;
26634;SDS011;14490;54.208;37.686;2023-07-31T12:11:31;2.67;;;1.30;;
26634;SDS011;14490;54.208;37.686;2023-07-31T12:14:18;2.80;;;1.13;;
26634;SDS011;14490;54.208;37.686;2023-07-31T12:16:47;2.70;;;1.20;;
26634;SDS011;14490;54.208;37.686;2023-07-31T12:19:16;3.30;;;1.48;;
26634;SDS011;14490;54.208;37.686;2023-07-31T12:24:12;3.03;;;1.60;;
26634;SDS011;14490;54.208;37.686;2023-07-31T12:26:40;3.13;;;1.50;;
26634;SDS011;14490;54.208;37.686;2023-07-31T12:29:08;2.10;;;1.60;;
26634;SDS011;14490;54.208;37.686;2023-07-31T12:31:36;4.43;;;1.58;;
26634;SDS011;14490;54.208;37.686;2023-07-31T12:34:03;5.30;;;1.50;;
26634;SDS011;14490;54.208;37.686;2023-07-31T12:36:44;3.17;;;1.00;;
26634;SDS011;14490;54.208;37.686;2023-07-31T12:39:12;2.35;;;1.20;;
26634;SDS011;14490;54.208;37.686;2023-07-31T12:41:39;2.03;;;1.33;;
26634;SDS011;14490;54.208;37.686;2023-07-31T12:44:07;5.38;;;1.60;;
26634;SDS011;14490;54.208;37.686;2023-07-31T12:46:38;13.93;;;1.48;;
26634;SDS011;14490;54.208;37.686;2023-07-31T12:49:10;4.47;;;1.10;;
26634;SDS011;14490;54.208;37.686;2023-07-31T12:51:42;2.22;;;2.00;;
26634;SDS011;14490;54.208;37.686;2023-07-31T12:54:09;3.22;;;1.50;;
26634;SDS011;14490;54.208;37.686;2023-07-31T12:56:37;1.70;;;1.20;;
26634;SDS011;14490;54.208;37.686;2023-07-31T12:59:04;2.40;;;1.55;;
26634;SDS011;14490;54.208;37.686;2023-07-31T13:01:31;3.63;;;1.35;;
26634;SDS011;14490;54.208;37.686;2023-07-31T13:03:59;2.78;;;1.17;;
26634;SDS011;14490;54.208;37.686;2023-07-31T13:06:27;1.85;;;1.17;;
26634;SDS011;14490;54.208;37.686;2023-07-31T13:08:55;2.75;;;1.30;;
26634;SDS011;14490;54.208;37.686;2023-07-31T13:11:22;2.10;;;1.02;;
26634;SDS011;14490;54.208;37.686;2023-07-31T13:13:49;4.28;;;1.63;;
26634;SDS011;14490;54.208;37.686;2023-07-31T13:16:24;3.63;;;1.23;;
26634;SDS011;14490;54.208;37.686;2023-07-31T13:18:54;2.38;;;2.00;;
26634;SDS011;14490;54.208;37.686;2023-07-31T13:21:21;8.95;;;1.60;;
26634;SDS011;14490;54.208;37.686;2023-07-31T13:23:50;6.80;;;1.63;;
26634;SDS011;14490;54.208;37.686;2023-07-31T13:26:17;2.25;;;1.25;;
26634;SDS011;14490;54.208;37.686;2023-07-31T13:28:44;3.83;;;1.50;;
26634;SDS011;14490;54.208;37.686;2023-07-31T13:31:12;2.08;;;1.40;;
26634;SDS011;14490;54.208;37.686;2023-07-31T13:33:39;3.47;;;2.17;;
26634;SDS011;14490;54.208;37.686;2023-07-31T13:36:06;2.17;;;1.60;;
26634;SDS011;14490;54.208;37.686;2023-07-31T13:38:36;1.92;;;1.20;;
26634;SDS011;14490;54.208;37.686;2023-07-31T13:41:05;4.53;;;1.33;;
26634;SDS011;14490;54.208;37.686;2023-07-31T13:43:34;4.65;;;1.40;;
26634;SDS011;14490;54.208;37.686;2023-07-31T13:46:01;3.97;;;1.80;;
26634;SDS011;14490;54.208;37.686;2023-07-31T13:48:31;3.00;;;2.13;;
26634;SDS011;14490;54.208;37.686;2023-07-31T13:51:01;1.45;;;1.10;;
26634;SDS011;14490;54.208;37.686;2023-07-31T13:53:28;2.30;;;1.30;;
26634;SDS011;14490;54.208;37.686;2023-07-31T13:55:57;2.03;;;1.60;;
26634;SDS011;14490;54.208;37.686;2023-07-31T13:58:26;2.28;;;1.70;;
26634;SDS011;14490;54.208;37.686;2023-07-31T14:00:53;2.53;;;1.33;;
26634;SDS011;14490;54.208;37.686;2023-07-31T14:03:20;1.85;;;1.58;;
26634;SDS011;14490;54.208;37.686;2023-07-31T14:05:47;1.92;;;1.70;;
26634;SDS011;14490;54.208;37.686;2023-07-31T14:08:15;1.80;;;1.30;;
26634;SDS011;14490;54.208;37.686;2023-07-31T14:10:45;5.35;;;1.50;;
26634;SDS011;14490;54.208;37.686;2023-07-31T14:13:12;2.08;;;1.23;;
26634;SDS011;14490;54.208;37.686;2023-07-31T14:15:43;2.28;;;1.40;;
26634;SDS011;14490;54.208;37.686;2023-07-31T14:18:10;3.00;;;2.75;;
26634;SDS011;14490;54.208;37.686;2023-07-31T14:20:38;7.50;;;3.28;;
26634;SDS011;14490;54.208;37.686;2023-07-31T14:23:05;1.55;;;1.20;;
26634;SDS011;14490;54.208;37.686;2023-07-31T14:25:32;2.47;;;1.25;;
26634;SDS011;14490;54.208;37.686;2023-07-31T14:28:00;2.30;;;1.40;;
26634;SDS011;14490;54.208;37.686;2023-07-31T14:30:27;3.15;;;1.95;;
26634;SDS011;14490;54.208;37.686;2023-07-31T14:32:55;2.00;;;1.50;;
26634;SDS011;14490;54.208;37.686;2023-07-31T14:35:23;2.78;;;1.42;;
26634;SDS011;14490;54.208;37.686;2023-07-31T14:37:50;3.97;;;2.20;;
26634;SDS011;14490;54.208;37.686;2023-07-31T14:40:33;3.35;;;1.70;;
26634;SDS011;14490;54.208;37.686;2023-07-31T14:43:01;4.05;;;2.28;;
26634;SDS011;14490;54.208;37.686;2023-07-31T14:45:29;5.45;;;3.47;;
26634;SDS011;14490;54.208;37.686;2023-07-31T14:47:57;4.88;;;1.75;;
26634;SDS011;14490;54.208;37.686;2023-07-31T14:50:25;3.20;;;1.40;;
26634;SDS011;14490;54.208;37.686;2023-07-31T14:52:54;3.83;;;2.67;;
26634;SDS011;14490;54.208;37.686;2023-07-31T14:55:23;6.78;;;1.70;;
26634;SDS011;14490;54.208;37.686;2023-07-31T14:57:56;5.85;;;1.70;;
26634;SDS011;14490;54.208;37.686;2023-07-31T15:00:24;3.97;;;1.80;;
26634;SDS011;14490;54.208;37.686;2023-07-31T15:02:51;2.58;;;2.22;;
26634;SDS011;14490;54.208;37.686;2023-07-31T15:05:20;4.00;;;1.30;;
26634;SDS011;14490;54.208;37.686;2023-07-31T15:07:48;2.95;;;1.60;;